Portada
METAR-TAF:

METAR-TAF

Aeropuertos :

Aeropuerto Internacional Julius Nyerere

Dar es Salaam, Tanzania

latitud: 06-52S, longitud: 039-12E, altitud: 55 m

Observación

El informe se hizo hace 53 minutos, a las 14:00 UTC
Viento 4 kt del norte-noreste
Temperatura 29°C
Humedad 79%
Presión 1009 hPa
Visibilidad 10 km o más
Nubes dispersas a una altura de 1300 ft
Cielo nuboso a una altura de 1400 ft
Escasas nubes a una altura de 1500 ft, Cumulonimbus.

METAR: HTDA 181400Z 02004KT 9999 SCT013 BKN014 FEW015CB 29/25 Q1009 NOSIG

Hora: 17:53 (14:53 UTC)

Pronóstico

El informe se hizo hace 9 horas y 53 minutos, a las 05:00 UTC
Pronóstico válido del 18 a las 06 UTC al 19 a las 12 UTC
Viento 10 kt del norte
Visibilidad 10 km o más
Cielo nuboso a una altura de 1400 ft
Escasas nubes a una altura de 1500 ft, Cumulonimbus.

TAF: HTDA 180500Z 1806/1912 36010KT 9999 BKN014 FEW015CB

Observaciones y pronósticos meteorológicos de más de 4000 aeropuertos (mensajes METAR y TAF).

Los puntos amarillos y rojos representan las estaciones disponibles.

Ponga el ratón en el punto deseado para ver el nombre de la estación.

Haga clic para ver las observaciones y los pronósticos meteorológicos.

Para cambiar el mapa : haga clic en los botones verdes con una cruz de color negro para hacer un zoom, en el botón verde con un guión para alejar o en las flechas verdes para mapas adyacentes.


METAR-TAF: